sensor_id;sensor_type;location;lat;lon;timestamp;pressure;altitude;pressure_sealevel;temperature;humidity
54453;BME280;40363;52.270;10.546;2023-07-22T00:01:16;75825.47;;;-147.06;81.55
54453;BME280;40363;52.270;10.546;2023-07-22T00:03:43;75821.34;;;-147.06;81.54
54453;BME280;40363;52.270;10.546;2023-07-22T00:06:10;75831.63;;;-147.06;81.84
54453;BME280;40363;52.270;10.546;2023-07-22T00:08:37;75829.56;;;-147.06;81.83
54453;BME280;40363;52.270;10.546;2023-07-22T00:11:04;75825.47;;;-147.06;81.85
54453;BME280;40363;52.270;10.546;2023-07-22T00:13:32;75831.63;;;-147.06;82.13
54453;BME280;40363;52.270;10.546;2023-07-22T00:16:00;75841.91;;;-147.06;82.60
54453;BME280;40363;52.270;10.546;2023-07-22T00:18:27;75843.97;;;-147.06;82.58
54453;BME280;40363;52.270;10.546;2023-07-22T00:20:54;75843.97;;;-147.06;82.48
54453;BME280;40363;52.270;10.546;2023-07-22T00:23:21;75862.44;;;-147.06;83.24
54453;BME280;40363;52.270;10.546;2023-07-22T00:25:48;75864.50;;;-147.06;83.00
54453;BME280;40363;52.270;10.546;2023-07-22T00:28:15;75872.72;;;-147.06;83.42
54453;BME280;40363;52.270;10.546;2023-07-22T00:30:43;75874.78;;;-147.06;83.29
54453;BME280;40363;52.270;10.546;2023-07-22T00:33:09;75880.94;;;-147.06;83.50
54453;BME280;40363;52.270;10.546;2023-07-22T00:35:36;75885.06;;;-147.06;83.34
54453;BME280;40363;52.270;10.546;2023-07-22T00:38:02;75885.06;;;-147.06;83.10
54453;BME280;40363;52.270;10.546;2023-07-22T00:40:30;75893.28;;;-147.06;83.46
54453;BME280;40363;52.270;10.546;2023-07-22T00:42:57;75903.56;;;-147.06;83.53
54453;BME280;40363;52.270;10.546;2023-07-22T00:45:24;75889.16;;;-147.06;83.48
54453;BME280;40363;52.270;10.546;2023-07-22T00:47:52;75899.44;;;-147.06;83.77
54453;BME280;40363;52.270;10.546;2023-07-22T00:50:19;75905.59;;;-147.06;83.93
54453;BME280;40363;52.270;10.546;2023-07-22T00:52:45;75913.81;;;-147.06;84.12
54453;BME280;40363;52.270;10.546;2023-07-22T00:55:12;75922.06;;;-147.06;84.37
54453;BME280;40363;52.270;10.546;2023-07-22T00:57:39;75926.16;;;-147.06;84.63
54453;BME280;40363;52.270;10.546;2023-07-22T01:00:07;75920.00;;;-147.06;84.45
54453;BME280;40363;52.270;10.546;2023-07-22T01:02:37;75926.16;;;-147.06;84.34
54453;BME280;40363;52.270;10.546;2023-07-22T01:05:05;75928.22;;;-147.06;84.67
54453;BME280;40363;52.270;10.546;2023-07-22T01:07:32;75924.09;;;-147.06;84.48
54453;BME280;40363;52.270;10.546;2023-07-22T01:09:59;75922.06;;;-147.06;84.42
54453;BME280;40363;52.270;10.546;2023-07-22T01:12:26;75915.88;;;-147.06;84.15
54453;BME280;40363;52.270;10.546;2023-07-22T01:14:52;75924.09;;;-147.06;84.08
54453;BME280;40363;52.270;10.546;2023-07-22T01:17:19;75928.22;;;-147.06;84.36
54453;BME280;40363;52.270;10.546;2023-07-22T01:19:46;75922.06;;;-147.06;83.99
54453;BME280;40363;52.270;10.546;2023-07-22T01:22:15;75934.38;;;-147.06;84.08
54453;BME280;40363;52.270;10.546;2023-07-22T01:24:44;75936.44;;;-147.06;84.14
54453;BME280;40363;52.270;10.546;2023-07-22T01:27:11;75942.59;;;-147.06;84.58
54453;BME280;40363;52.270;10.546;2023-07-22T01:29:39;75954.94;;;-147.06;84.40
54453;BME280;40363;52.270;10.546;2023-07-22T01:32:06;75959.03;;;-147.06;84.89
54453;BME280;40363;52.270;10.546;2023-07-22T01:34:33;75948.75;;;-147.06;84.42
54453;BME280;40363;52.270;10.546;2023-07-22T01:36:59;75963.16;;;-147.06;84.87
54453;BME280;40363;52.270;10.546;2023-07-22T01:39:26;75950.81;;;-147.06;84.57
54453;BME280;40363;52.270;10.546;2023-07-22T01:41:54;75957.00;;;-147.06;84.73
54453;BME280;40363;52.270;10.546;2023-07-22T01:44:21;75963.16;;;-147.06;84.64
54453;BME280;40363;52.270;10.546;2023-07-22T01:46:47;75959.03;;;-147.06;84.86
54453;BME280;40363;52.270;10.546;2023-07-22T01:49:14;75950.81;;;-147.06;84.60
54453;BME280;40363;52.270;10.546;2023-07-22T01:51:42;75954.94;;;-147.06;84.59
54453;BME280;40363;52.270;10.546;2023-07-22T01:54:08;75954.94;;;-147.06;84.82
54453;BME280;40363;52.270;10.546;2023-07-22T01:56:35;75952.88;;;-147.06;84.67
54453;BME280;40363;52.270;10.546;2023-07-22T01:59:03;75961.09;;;-147.06;84.63
54453;BME280;40363;52.270;10.546;2023-07-22T02:01:30;75969.31;;;-147.06;84.96
54453;BME280;40363;52.270;10.546;2023-07-22T02:03:56;75963.16;;;-147.06;84.96
54453;BME280;40363;52.270;10.546;2023-07-22T02:06:23;75971.38;;;-147.06;85.16
54453;BME280;40363;52.270;10.546;2023-07-22T02:08:49;75987.81;;;-147.06;85.94
54453;BME280;40363;52.270;10.546;2023-07-22T02:11:16;75991.91;;;-147.06;86.03
54453;BME280;40363;52.270;10.546;2023-07-22T02:13:43;75991.91;;;-147.06;86.07
54453;BME280;40363;52.270;10.546;2023-07-22T02:16:11;75991.91;;;-147.06;86.09
54453;BME280;40363;52.270;10.546;2023-07-22T02:18:38;75987.81;;;-147.06;86.30
54453;BME280;40363;52.270;10.546;2023-07-22T02:21:04;76000.16;;;-147.06;86.40
54453;BME280;40363;52.270;10.546;2023-07-22T02:23:31;75996.03;;;-147.06;86.64
54453;BME280;40363;52.270;10.546;2023-07-22T02:25:58;76000.16;;;-147.06;86.88
54453;BME280;40363;52.270;10.546;2023-07-22T02:28:25;75996.03;;;-147.06;86.73
54453;BME280;40363;52.270;10.546;2023-07-22T02:30:52;76016.59;;;-147.06;87.09
54453;BME280;40363;52.270;10.546;2023-07-22T02:33:21;76010.41;;;-147.06;87.11
54453;BME280;40363;52.270;10.546;2023-07-22T02:35:48;76012.47;;;-147.06;86.96
54453;BME280;40363;52.270;10.546;2023-07-22T02:38:15;76016.59;;;-147.06;87.54
54453;BME280;40363;52.270;10.546;2023-07-22T02:40:41;76020.69;;;-147.06;87.55
54453;BME280;40363;52.270;10.546;2023-07-22T02:43:08;76008.38;;;-147.06;87.13
54453;BME280;40363;52.270;10.546;2023-07-22T02:45:36;76018.63;;;-147.06;87.29
54453;BME280;40363;52.270;10.546;2023-07-22T02:48:03;76016.59;;;-147.06;86.92
54453;BME280;40363;52.270;10.546;2023-07-22T02:50:31;76026.84;;;-147.06;87.44
54453;BME280;40363;52.270;10.546;2023-07-22T02:52:58;76037.13;;;-147.06;87.43
54453;BME280;40363;52.270;10.546;2023-07-22T02:55:25;76033.03;;;-147.06;87.56
54453;BME280;40363;52.270;10.546;2023-07-22T02:57:52;76041.25;;;-147.06;87.60
54453;BME280;40363;52.270;10.546;2023-07-22T03:00:20;76041.25;;;-147.06;87.56
54453;BME280;40363;52.270;10.546;2023-07-22T03:02:49;76051.53;;;-147.06;87.63
54453;BME280;40363;52.270;10.546;2023-07-22T03:05:16;76055.63;;;-147.06;87.84
54453;BME280;40363;52.270;10.546;2023-07-22T03:07:44;76059.75;;;-147.06;87.92
54453;BME280;40363;52.270;10.546;2023-07-22T03:10:11;76061.78;;;-147.06;88.07
54453;BME280;40363;52.270;10.546;2023-07-22T03:12:38;76053.56;;;-147.06;87.77
54453;BME280;40363;52.270;10.546;2023-07-22T03:15:05;76072.06;;;-147.06;87.67
54453;BME280;40363;52.270;10.546;2023-07-22T03:17:34;76067.97;;;-147.06;87.56
54453;BME280;40363;52.270;10.546;2023-07-22T03:20:01;76078.25;;;-147.06;87.98
54453;BME280;40363;52.270;10.546;2023-07-22T03:22:27;76070.00;;;-147.06;87.61
54453;BME280;40363;52.270;10.546;2023-07-22T03:24:55;76061.78;;;-147.06;87.38
54453;BME280;40363;52.270;10.546;2023-07-22T03:27:22;76059.75;;;-147.06;87.08
54453;BME280;40363;52.270;10.546;2023-07-22T03:29:48;76063.84;;;-147.06;86.81
54453;BME280;40363;52.270;10.546;2023-07-22T03:32:15;76061.78;;;-147.06;86.50
54453;BME280;40363;52.270;10.546;2023-07-22T03:34:42;76070.00;;;-147.06;86.57
54453;BME280;40363;52.270;10.546;2023-07-22T03:37:09;76059.75;;;-147.06;85.97
54453;BME280;40363;52.270;10.546;2023-07-22T03:39:35;76055.63;;;-147.06;85.61
54453;BME280;40363;52.270;10.546;2023-07-22T03:42:04;76047.41;;;-147.06;85.72
54453;BME280;40363;52.270;10.546;2023-07-22T03:44:31;76049.47;;;-147.06;85.26
54453;BME280;40363;52.270;10.546;2023-07-22T03:46:59;76061.78;;;-147.06;85.44
54453;BME280;40363;52.270;10.546;2023-07-22T03:49:25;76045.34;;;-147.06;85.10
54453;BME280;40363;52.270;10.546;2023-07-22T03:51:52;76041.25;;;-147.06;84.88
54453;BME280;40363;52.270;10.546;2023-07-22T03:54:18;76045.34;;;-147.06;84.74
54453;BME280;40363;52.270;10.546;2023-07-22T03:56:45;76049.47;;;-147.06;84.80
54453;BME280;40363;52.270;10.546;2023-07-22T03:59:13;76035.09;;;-147.06;84.70
54453;BME280;40363;52.270;10.546;2023-07-22T04:01:40;76039.19;;;-147.06;84.23
54453;BME280;40363;52.270;10.546;2023-07-22T04:04:06;76033.03;;;-147.06;84.22
54453;BME280;40363;52.270;10.546;2023-07-22T04:06:33;76028.91;;;-147.06;83.87
54453;BME280;40363;52.270;10.546;2023-07-22T04:09:00;76022.75;;;-147.06;83.45
54453;BME280;40363;52.270;10.546;2023-07-22T04:11:26;76008.38;;;-147.06;83.46
54453;BME280;40363;52.270;10.546;2023-07-22T04:13:53;76010.41;;;-147.06;83.08
54453;BME280;40363;52.270;10.546;2023-07-22T04:16:21;76014.53;;;-147.06;82.62
54453;BME280;40363;52.270;10.546;2023-07-22T04:18:47;76016.59;;;-147.06;82.69
54453;BME280;40363;52.270;10.546;2023-07-22T04:21:14;76016.59;;;-147.06;82.50
54453;BME280;40363;52.270;10.546;2023-07-22T04:23:40;76006.31;;;-147.06;82.33
54453;BME280;40363;52.270;10.546;2023-07-22T04:26:07;76018.63;;;-147.06;82.29
54453;BME280;40363;52.270;10.546;2023-07-22T04:28:34;76004.25;;;-147.06;81.56
54453;BME280;40363;52.270;10.546;2023-07-22T04:31:00;75996.03;;;-147.06;81.11
54453;BME280;40363;52.270;10.546;2023-07-22T04:33:28;75985.75;;;-147.06;80.65
54453;BME280;40363;52.270;10.546;2023-07-22T04:35:57;75987.81;;;-147.06;80.07
54453;BME280;40363;52.270;10.546;2023-07-22T04:38:24;75979.59;;;-147.06;80.04
54453;BME280;40363;52.270;10.546;2023-07-22T04:40:50;75979.59;;;-147.06;79.58
54453;BME280;40363;52.270;10.546;2023-07-22T04:43:17;75967.25;;;-147.06;79.07
54453;BME280;40363;52.270;10.546;2023-07-22T04:45:44;75961.09;;;-147.06;78.80
54453;BME280;40363;52.270;10.546;2023-07-22T04:48:13;75957.00;;;-147.06;78.82
54453;BME280;40363;52.270;10.546;2023-07-22T04:50:41;75944.66;;;-147.06;78.18
54453;BME280;40363;52.270;10.546;2023-07-22T04:53:10;75917.94;;;-147.06;77.37
54453;BME280;40363;52.270;10.546;2023-07-22T04:55:38;75913.81;;;-147.06;77.22
54453;BME280;40363;52.270;10.546;2023-07-22T04:58:04;75913.81;;;-147.06;77.16
54453;BME280;40363;52.270;10.546;2023-07-22T05:00:31;75950.81;;;-147.06;77.98
54453;BME280;40363;52.270;10.546;2023-07-22T05:02:59;75952.88;;;-147.06;77.78
54453;BME280;40363;52.270;10.546;2023-07-22T05:05:25;75942.59;;;-147.06;77.48
54453;BME280;40363;52.270;10.546;2023-07-22T05:07:53;75928.22;;;-147.06;77.64
54453;BME280;40363;52.270;10.546;2023-07-22T05:10:20;75928.22;;;-147.06;77.25
54453;BME280;40363;52.270;10.546;2023-07-22T05:12:47;75928.22;;;-147.06;77.26
54453;BME280;40363;52.270;10.546;2023-07-22T05:15:13;75932.31;;;-147.06;76.93
54453;BME280;40363;52.270;10.546;2023-07-22T05:17:40;75928.22;;;-147.06;76.89
54453;BME280;40363;52.270;10.546;2023-07-22T05:20:07;75934.38;;;-147.06;77.03
54453;BME280;40363;52.270;10.546;2023-07-22T05:22:35;75926.16;;;-147.06;76.23
54453;BME280;40363;52.270;10.546;2023-07-22T05:25:04;75934.38;;;-147.06;76.51
54453;BME280;40363;52.270;10.546;2023-07-22T05:27:31;75917.94;;;-147.06;75.99
54453;BME280;40363;52.270;10.546;2023-07-22T05:29:58;75907.66;;;-147.06;75.71
54453;BME280;40363;52.270;10.546;2023-07-22T05:32:28;75905.59;;;-147.06;75.17
54453;BME280;40363;52.270;10.546;2023-07-22T05:34:55;75903.56;;;-147.06;75.18
54453;BME280;40363;52.270;10.546;2023-07-22T05:37:21;75893.28;;;-147.06;74.27
54453;BME280;40363;52.270;10.546;2023-07-22T05:39:48;75895.34;;;-147.06;74.24
54453;BME280;40363;52.270;10.546;2023-07-22T05:42:16;75870.66;;;-147.06;72.86
54453;BME280;40363;52.270;10.546;2023-07-22T05:44:42;75862.44;;;-147.06;71.74
54453;BME280;40363;52.270;10.546;2023-07-22T05:47:09;75854.22;;;-147.06;71.23
54453;BME280;40363;52.270;10.546;2023-07-22T05:49:35;75827.50;;;-147.06;70.46
54453;BME280;40363;52.270;10.546;2023-07-22T05:52:02;75811.06;;;-147.06;70.10
54453;BME280;40363;52.270;10.546;2023-07-22T05:54:29;75809.03;;;-147.06;68.97
54453;BME280;40363;52.270;10.546;2023-07-22T05:56:55;75823.41;;;-147.06;69.06
54453;BME280;40363;52.270;10.546;2023-07-22T05:59:23;75804.91;;;-147.06;69.03
54453;BME280;40363;52.270;10.546;2023-07-22T06:01:50;75815.19;;;-147.06;68.76
54453;BME280;40363;52.270;10.546;2023-07-22T06:04:17;75776.13;;;-147.06;67.71
54453;BME280;40363;52.270;10.546;2023-07-22T06:06:43;75772.03;;;-147.06;67.76
54453;BME280;40363;52.270;10.546;2023-07-22T06:09:10;75745.31;;;-147.06;66.88
54453;BME280;40363;52.270;10.546;2023-07-22T06:11:37;75737.09;;;-147.06;66.59
54453;BME280;40363;52.270;10.546;2023-07-22T06:14:03;75767.91;;;-147.06;67.10
54453;BME280;40363;52.270;10.546;2023-07-22T06:16:31;75761.75;;;-147.06;66.97
54453;BME280;40363;52.270;10.546;2023-07-22T06:18:58;75767.91;;;-147.06;66.70
54453;BME280;40363;52.270;10.546;2023-07-22T06:21:24;75730.94;;;-147.06;65.97
54453;BME280;40363;52.270;10.546;2023-07-22T06:23:51;75683.66;;;-147.06;64.41
54453;BME280;40363;52.270;10.546;2023-07-22T06:26:17;75675.44;;;-147.06;63.87
54453;BME280;40363;52.270;10.546;2023-07-22T06:28:44;75617.91;;;-147.06;62.58
54453;BME280;40363;52.270;10.546;2023-07-22T06:31:10;75521.31;;;-147.06;59.52
54453;BME280;40363;52.270;10.546;2023-07-22T06:33:38;75517.22;;;-147.06;59.15
54453;BME280;40363;52.270;10.546;2023-07-22T06:36:05;75476.13;;;-147.06;58.38
54453;BME280;40363;52.270;10.546;2023-07-22T06:38:31;75478.19;;;-147.06;57.57
54453;BME280;40363;52.270;10.546;2023-07-22T06:40:58;75591.19;;;-147.06;60.23
54453;BME280;40363;52.270;10.546;2023-07-22T06:43:24;75589.13;;;-147.06;60.61
54453;BME280;40363;52.270;10.546;2023-07-22T06:45:51;75566.53;;;-147.06;59.65
54453;BME280;40363;52.270;10.546;2023-07-22T06:48:17;75593.25;;;-147.06;60.09
54453;BME280;40363;52.270;10.546;2023-07-22T06:50:48;75630.25;;;-147.06;61.24
54453;BME280;40363;52.270;10.546;2023-07-22T06:53:15;75665.16;;;-147.06;62.38
54453;BME280;40363;52.270;10.546;2023-07-22T06:55:48;75706.28;;;-147.06;63.65
54453;BME280;40363;52.270;10.546;2023-07-22T06:58:15;75728.88;;;-147.06;64.00
54453;BME280;40363;52.270;10.546;2023-07-22T07:00:41;75700.09;;;-147.06;63.98
54453;BME280;40363;52.270;10.546;2023-07-22T07:03:08;75704.22;;;-147.06;63.89
54453;BME280;40363;52.270;10.546;2023-07-22T07:05:35;75650.78;;;-147.06;62.69
54453;BME280;40363;52.270;10.546;2023-07-22T07:08:03;75531.59;;;-147.06;60.18
54453;BME280;40363;52.270;10.546;2023-07-22T07:10:34;75455.56;;;-147.06;57.84
54453;BME280;40363;52.270;10.546;2023-07-22T07:13:02;75539.81;;;-147.06;59.58
54453;BME280;40363;52.270;10.546;2023-07-22T07:15:28;75461.75;;;-147.06;57.63
54453;BME280;40363;52.270;10.546;2023-07-22T07:17:55;75391.88;;;-147.06;55.92
54453;BME280;40363;52.270;10.546;2023-07-22T07:20:22;75428.84;;;-147.06;56.22
54453;BME280;40363;52.270;10.546;2023-07-22T07:22:48;75324.06;;;-147.06;53.59
54453;BME280;40363;52.270;10.546;2023-07-22T07:25:16;75233.66;;;-147.06;50.95
54453;BME280;40363;52.270;10.546;2023-07-22T07:27:43;75206.94;;;-147.06;50.48
54453;BME280;40363;52.270;10.546;2023-07-22T07:30:10;75108.31;;;-147.06;47.79
54453;BME280;40363;52.270;10.546;2023-07-22T07:32:36;75073.38;;;-147.06;46.93
54453;BME280;40363;52.270;10.546;2023-07-22T07:35:04;75159.69;;;-147.06;47.32
54453;BME280;40363;52.270;10.546;2023-07-22T07:37:31;75108.31;;;-147.06;46.28
54453;BME280;40363;52.270;10.546;2023-07-22T07:39:58;75258.31;;;-147.06;49.32
54453;BME280;40363;52.270;10.546;2023-07-22T07:42:26;75243.94;;;-147.06;49.79
54453;BME280;40363;52.270;10.546;2023-07-22T07:44:52;75414.47;;;-147.06;53.53
54453;BME280;40363;52.270;10.546;2023-07-22T07:47:19;75449.41;;;-147.06;55.07
54453;BME280;40363;52.270;10.546;2023-07-22T07:49:46;75484.34;;;-147.06;55.88
54453;BME280;40363;52.270;10.546;2023-07-22T07:52:12;75486.41;;;-147.06;55.64
54453;BME280;40363;52.270;10.546;2023-07-22T07:54:39;75455.56;;;-147.06;54.09
54453;BME280;40363;52.270;10.546;2023-07-22T07:57:06;75474.06;;;-147.06;55.11
54453;BME280;40363;52.270;10.546;2023-07-22T07:59:34;75424.75;;;-147.06;54.13
54453;BME280;40363;52.270;10.546;2023-07-22T08:02:01;75486.41;;;-147.06;55.31
54453;BME280;40363;52.270;10.546;2023-07-22T08:04:29;75457.63;;;-147.06;54.83
54453;BME280;40363;52.270;10.546;2023-07-22T08:06:56;75393.94;;;-147.06;53.40
54453;BME280;40363;52.270;10.546;2023-07-22T08:09:22;75387.75;;;-147.06;52.61
54453;BME280;40363;52.270;10.546;2023-07-22T08:11:49;75393.94;;;-147.06;52.19
54453;BME280;40363;52.270;10.546;2023-07-22T08:14:16;75354.88;;;-147.06;51.68
54453;BME280;40363;52.270;10.546;2023-07-22T08:16:45;75342.56;;;-147.06;51.10
54453;BME280;40363;52.270;10.546;2023-07-22T08:19:11;75301.47;;;-147.06;49.76
54453;BME280;40363;52.270;10.546;2023-07-22T08:21:38;75311.75;;;-147.06;49.59
54453;BME280;40363;52.270;10.546;2023-07-22T08:24:05;75317.91;;;-147.06;50.61
54453;BME280;40363;52.270;10.546;2023-07-22T08:26:32;75285.03;;;-147.06;50.10
54453;BME280;40363;52.270;10.546;2023-07-22T08:28:59;75305.56;;;-147.06;49.75
54453;BME280;40363;52.270;10.546;2023-07-22T08:31:25;75336.41;;;-147.06;50.43
54453;BME280;40363;52.270;10.546;2023-07-22T08:33:53;75348.72;;;-147.06;50.60
54453;BME280;40363;52.270;10.546;2023-07-22T08:36:20;75400.09;;;-147.06;51.35
54453;BME280;40363;52.270;10.546;2023-07-22T08:38:47;75426.81;;;-147.06;52.25
54453;BME280;40363;52.270;10.546;2023-07-22T08:41:14;75437.06;;;-147.06;52.55
54453;BME280;40363;52.270;10.546;2023-07-22T08:43:44;75435.03;;;-147.06;52.88
54453;BME280;40363;52.270;10.546;2023-07-22T08:46:12;75406.25;;;-147.06;52.94
54453;BME280;40363;52.270;10.546;2023-07-22T08:48:41;75375.44;;;-147.06;52.43
54453;BME280;40363;52.270;10.546;2023-07-22T08:51:13;75332.28;;;-147.06;51.55
54453;BME280;40363;52.270;10.546;2023-07-22T08:53:42;75352.84;;;-147.06;51.26
54453;BME280;40363;52.270;10.546;2023-07-22T08:56:09;75383.66;;;-147.06;51.29
54453;BME280;40363;52.270;10.546;2023-07-22T08:58:37;75367.22;;;-147.06;50.60
54453;BME280;40363;52.270;10.546;2023-07-22T09:01:05;75322.00;;;-147.06;49.59
54453;BME280;40363;52.270;10.546;2023-07-22T09:03:32;75356.94;;;-147.06;50.16
54453;BME280;40363;52.270;10.546;2023-07-22T09:05:59;75449.41;;;-147.06;52.28
54453;BME280;40363;52.270;10.546;2023-07-22T09:08:27;75414.47;;;-147.06;51.80
54453;BME280;40363;52.270;10.546;2023-07-22T09:10:53;75414.47;;;-147.06;51.84
54453;BME280;40363;52.270;10.546;2023-07-22T09:13:21;75412.41;;;-147.06;52.47
54453;BME280;40363;52.270;10.546;2023-07-22T09:15:49;75326.13;;;-147.06;50.67
54453;BME280;40363;52.270;10.546;2023-07-22T09:18:16;75346.66;;;-147.06;50.71
54453;BME280;40363;52.270;10.546;2023-07-22T09:20:42;75291.19;;;-147.06;50.30
54453;BME280;40363;52.270;10.546;2023-07-22T09:23:09;75250.09;;;-147.06;49.35
54453;BME280;40363;52.270;10.546;2023-07-22T09:25:37;75276.81;;;-147.06;49.77
54453;BME280;40363;52.270;10.546;2023-07-22T09:28:03;75237.75;;;-147.06;48.92
54453;BME280;40363;52.270;10.546;2023-07-22T09:30:32;75289.13;;;-147.06;50.13
54453;BME280;40363;52.270;10.546;2023-07-22T09:33:00;75258.31;;;-147.06;49.84
54453;BME280;40363;52.270;10.546;2023-07-22T09:35:29;75172.00;;;-147.06;47.55
54453;BME280;40363;52.270;10.546;2023-07-22T09:37:56;75132.97;;;-147.06;47.55
54453;BME280;40363;52.270;10.546;2023-07-22T09:40:24;75176.13;;;-147.06;48.01
54453;BME280;40363;52.270;10.546;2023-07-22T09:42:54;75221.31;;;-147.06;48.87
54453;BME280;40363;52.270;10.546;2023-07-22T09:45:22;75248.03;;;-147.06;49.50
54453;BME280;40363;52.270;10.546;2023-07-22T09:47:51;75268.59;;;-147.06;50.05
54453;BME280;40363;52.270;10.546;2023-07-22T09:50:19;75252.16;;;-147.06;49.72
54453;BME280;40363;52.270;10.546;2023-07-22T09:52:48;75324.06;;;-147.06;50.77
54453;BME280;40363;52.270;10.546;2023-07-22T09:55:16;75367.22;;;-147.06;52.46
54453;BME280;40363;52.270;10.546;2023-07-22T09:57:45;75437.06;;;-147.06;53.79
54453;BME280;40363;52.270;10.546;2023-07-22T10:00:15;75455.56;;;-147.06;54.40
54453;BME280;40363;52.270;10.546;2023-07-22T10:02:43;75457.63;;;-147.06;54.85
54453;BME280;40363;52.270;10.546;2023-07-22T10:05:14;75432.97;;;-147.06;53.90
54453;BME280;40363;52.270;10.546;2023-07-22T10:07:46;75346.66;;;-147.06;51.85
54453;BME280;40363;52.270;10.546;2023-07-22T10:10:15;75254.19;;;-147.06;50.22
54453;BME280;40363;52.270;10.546;2023-07-22T10:12:42;75145.31;;;-147.06;48.27
54453;BME280;40363;52.270;10.546;2023-07-22T10:15:09;75132.97;;;-147.06;47.61
54453;BME280;40363;52.270;10.546;2023-07-22T10:17:38;75219.28;;;-147.06;48.92
54453;BME280;40363;52.270;10.546;2023-07-22T10:20:06;75196.66;;;-147.06;49.06
54453;BME280;40363;52.270;10.546;2023-07-22T10:22:36;75188.44;;;-147.06;48.89
54453;BME280;40363;52.270;10.546;2023-07-22T10:25:04;75054.91;;;-147.06;46.63
54453;BME280;40363;52.270;10.546;2023-07-22T10:27:32;75069.28;;;-147.06;46.34
54453;BME280;40363;52.270;10.546;2023-07-22T10:30:00;75022.03;;;-147.06;45.66
54453;BME280;40363;52.270;10.546;2023-07-22T10:32:32;75075.44;;;-147.06;46.59
54453;BME280;40363;52.270;10.546;2023-07-22T10:35:00;75174.06;;;-147.06;47.60
54453;BME280;40363;52.270;10.546;2023-07-22T10:37:30;75194.63;;;-147.06;48.14
54453;BME280;40363;52.270;10.546;2023-07-22T10:39:59;75116.53;;;-147.06;46.52
54453;BME280;40363;52.270;10.546;2023-07-22T10:42:26;75054.91;;;-147.06;45.55
54453;BME280;40363;52.270;10.546;2023-07-22T10:44:52;75102.16;;;-147.06;46.79
54453;BME280;40363;52.270;10.546;2023-07-22T10:47:31;75176.13;;;-147.06;47.65
54453;BME280;40363;52.270;10.546;2023-07-22T10:50:07;75252.16;;;-147.06;49.03
54453;BME280;40363;52.270;10.546;2023-07-22T10:52:40;75256.25;;;-147.06;49.58
54453;BME280;40363;52.270;10.546;2023-07-22T10:55:14;75299.41;;;-147.06;50.59
54453;BME280;40363;52.270;10.546;2023-07-22T10:57:48;75317.91;;;-147.06;51.10
54453;BME280;40363;52.270;10.546;2023-07-22T11:00:19;75252.16;;;-147.06;49.18
54453;BME280;40363;52.270;10.546;2023-07-22T11:02:47;75243.94;;;-147.06;48.67
54453;BME280;40363;52.270;10.546;2023-07-22T11:05:48;75211.06;;;-147.06;48.97
54453;BME280;40363;52.270;10.546;2023-07-22T11:08:16;75223.38;;;-147.06;49.77
54453;BME280;40363;52.270;10.546;2023-07-22T11:11:00;75280.91;;;-147.06;49.79
54453;BME280;40363;52.270;10.546;2023-07-22T11:13:27;75301.47;;;-147.06;50.37
54453;BME280;40363;52.270;10.546;2023-07-22T11:15:57;75315.84;;;-147.06;50.99
54453;BME280;40363;52.270;10.546;2023-07-22T11:18:36;75319.94;;;-147.06;50.96
54453;BME280;40363;52.270;10.546;2023-07-22T11:21:07;75295.28;;;-147.06;50.58
54453;BME280;40363;52.270;10.546;2023-07-22T11:23:33;75217.22;;;-147.06;48.08
54453;BME280;40363;52.270;10.546;2023-07-22T11:26:01;75167.91;;;-147.06;47.38
54453;BME280;40363;52.270;10.546;2023-07-22T11:28:28;75153.53;;;-147.06;47.12
54453;BME280;40363;52.270;10.546;2023-07-22T11:30:55;75112.44;;;-147.06;47.02
54453;BME280;40363;52.270;10.546;2023-07-22T11:33:21;75063.13;;;-147.06;46.53
54453;BME280;40363;52.270;10.546;2023-07-22T11:35:48;75065.16;;;-147.06;46.20
54453;BME280;40363;52.270;10.546;2023-07-22T11:38:16;75071.34;;;-147.06;46.07
54453;BME280;40363;52.270;10.546;2023-07-22T11:40:42;75104.22;;;-147.06;46.42
54453;BME280;40363;52.270;10.546;2023-07-22T11:43:09;75100.09;;;-147.06;45.82
54453;BME280;40363;52.270;10.546;2023-07-22T11:45:38;75059.00;;;-147.06;44.70
54453;BME280;40363;52.270;10.546;2023-07-22T11:48:09;75052.84;;;-147.06;44.75
54453;BME280;40363;52.270;10.546;2023-07-22T11:50:36;75034.34;;;-147.06;44.08
54453;BME280;40363;52.270;10.546;2023-07-22T11:53:02;75005.59;;;-147.06;44.06
54453;BME280;40363;52.270;10.546;2023-07-22T11:55:30;75015.84;;;-147.06;43.78
54453;BME280;40363;52.270;10.546;2023-07-22T11:58:01;74997.38;;;-147.06;43.00
54453;BME280;40363;52.270;10.546;2023-07-22T12:00:28;75050.78;;;-147.06;43.21
54453;BME280;40363;52.270;10.546;2023-07-22T12:02:55;75063.13;;;-147.06;43.58
54453;BME280;40363;52.270;10.546;2023-07-22T12:05:22;75059.00;;;-147.06;43.87
54453;BME280;40363;52.270;10.546;2023-07-22T12:07:49;75104.22;;;-147.06;44.36
54453;BME280;40363;52.270;10.546;2023-07-22T12:10:15;75110.38;;;-147.06;44.37
54453;BME280;40363;52.270;10.546;2023-07-22T12:12:45;75163.78;;;-147.06;45.30
54453;BME280;40363;52.270;10.546;2023-07-22T12:15:15;75198.72;;;-147.06;45.81
54453;BME280;40363;52.270;10.546;2023-07-22T12:17:47;75198.72;;;-147.06;46.18
54453;BME280;40363;52.270;10.546;2023-07-22T12:20:14;75188.44;;;-147.06;45.93
54453;BME280;40363;52.270;10.546;2023-07-22T12:22:41;75151.47;;;-147.06;45.33
54453;BME280;40363;52.270;10.546;2023-07-22T12:25:08;75112.44;;;-147.06;44.83
54453;BME280;40363;52.270;10.546;2023-07-22T12:27:36;75091.88;;;-147.06;44.15
54453;BME280;40363;52.270;10.546;2023-07-22T12:30:05;75054.91;;;-147.06;43.75
54453;BME280;40363;52.270;10.546;2023-07-22T12:32:35;75040.50;;;-147.06;44.00